Continental Highway — H9LY — position and weather

sailwx.info

Track history (hours):
 
Tides and Currents Weather Stations Pressure Air Temp Water Temp Dewpoint Dewpoint Depression Visibility Wind Speed Wind Dir Waves Ship Positions

Continental Highway

Last reported at 2017-May-02 21:00 UTC. Time now 2017-May-27 21:05 UTC.
Position N 54°24' W 165°12'.
Warning: this ship's position is 25 days out of date.

Length 199.9 m; beam 32.2 m.

Type: Cargo ship. MMSI: 351223000.

Wind from 340 at 30 knots

Barometer 1002.4 mb
Air temperature 6.0 ° C
Visibility: greater than 5.4 NM
Water temperature 3.5 ° C

Date/timePositionNaut miles runAvg speedWind from/ knotsBaromVisibWave heightAir tempDewpointWater temp
2017-May-02 21:00N 54°24' W 165°12'   340 / 301002.4 5.4 6.0 3.5
2017-Apr-27 23:27N 37°34' W 127°22'716.4
2017-Apr-27 23:00N 37°34' W 127°13'2116.1
2017-Apr-27 21:43N 37°34' W 126°47'816.0
2017-Apr-27 21:15N 37°34' W 126°37'4016.0
2017-Apr-27 18:44N 37°34' W 125°46'616.3
2017-Apr-27 18:23N 37°34' W 125°39'2916.0
2017-Apr-27 16:35N 37°34' W 125°03'116.0
2017-Apr-27 16:30N 37°34' W 125°02'1415.8
2017-Apr-27 15:37N 37°34' W 124°44'1615.4
2017-Apr-27 14:33N 37°34' W 124°23'2615.1
2017-Apr-27 12:50N 37°34' W 123°50'1014.8
2017-Apr-27 12:07N 37°34' W 123°37'214.7
2017-Apr-27 12:00N 37°34' W 123°35'814.5
2017-Apr-27 11:28N 37°34' W 123°25'714.8
2017-Apr-27 11:00N 37°34' W 123°16'714.8
2017-Apr-27 10:30N 37°34' W 123°07'815.4
2017-Apr-27 10:00N 37°37' W 122°58'815.6
2017-Apr-27 09:29N 37°42' W 122°50'611.5
2017-Apr-27 09:00N 37°45' W 122°44'4 7.6
2017-Apr-27 08:30N 37°46' W 122°39'612.6
2017-Apr-27 08:00N 37°48' W 122°32'713.1
2017-Apr-27 07:30N 37°51' W 122°25'714.3
2017-Apr-27 07:00N 37°58' W 122°26'612.4
2017-Apr-27 06:30N 38°03' W 122°21'612.8
2017-Apr-27 06:00N 38°04' W 122°12'4 7.1
2017-Apr-27 05:30N 38°02' W 122°08'0 0.2
2017-Apr-27 04:43N 38°02' W 122°08'0 0.0
2017-Apr-27 04:13N 38°02' W 122°08'0 0.0
2017-Apr-27 03:55N 38°02' W 122°08'0 0.0
2017-Apr-27 03:19N 38°02' W 122°08'0 0.0
2017-Apr-27 01:49N 38°02' W 122°08'0 0.0
2017-Apr-27 01:19N 38°02' W 122°08'0 0.0
2017-Apr-27 00:13N 38°02' W 122°08'0 0.0
2017-Apr-26 23:43N 38°02' W 122°08'0 0.0
2017-Apr-26 22:19N 38°02' W 122°08'0 0.0
2017-Apr-26 20:31N 38°02' W 122°08'0 0.0
2017-Apr-26 20:25N 38°02' W 122°08'0 0.0
2017-Apr-26 19:55N 38°02' W 122°08'0 0.0
2017-Apr-26 18:49N 38°02' W 122°08'0 0.0
2017-Apr-26 17:19N 38°02' W 122°08'0 0.0
2017-Apr-26 16:55N 38°02' W 122°08'0 0.0
2017-Apr-26 16:13N 38°02' W 122°08'0 0.0
2017-Apr-26 11:37N 38°02' W 122°08'0 0.0
2017-Apr-26 06:33N 38°02' W 122°08'0 1.5
2017-Apr-26 06:27N 38°02' W 122°08'3 5.8
2017-Apr-26 05:59N 38°03' W 122°11'715.1
2017-Apr-26 05:30N 38°03' W 122°20'815.7
2017-Apr-26 05:00N 37°57' W 122°27'713.8
2017-Apr-26 04:30N 37°50' W 122°24'3 6.4
2017-Apr-26 04:00N 37°49' W 122°28'714.4
2017-Apr-26 03:31N 37°46' W 122°36'4 8.1
2017-Apr-26 03:00N 37°43' W 122°40'611.0
2017-Apr-26 02:30N 37°38' W 122°39'5 9.8
2017-Apr-26 02:00N 37°33' W 122°40'815.5
2017-Apr-26 01:30N 37°25' W 122°40'815.3
2017-Apr-26 00:59N 37°17' W 122°40'714.9
2017-Apr-26 00:30N 37°10' W 122°37'815.0
2017-Apr-26 00:00N 37°03' W 122°35'1214.8
2017-Apr-25 23:13N 36°52' W 122°31'315.0
2017-Apr-25 23:00N 36°48' W 122°30'815.1
2017-Apr-25 22:30N 36°41' W 122°28'715.0
2017-Apr-25 22:00N 36°35' W 122°23'815.2
2017-Apr-25 21:30N 36°28' W 122°19'714.8
2017-Apr-25 21:00N 36°21' W 122°15'714.8
2017-Apr-25 20:30N 36°15' W 122°10'714.9
2017-Apr-25 20:00N 36°08' W 122°06'815.0
2017-Apr-25 19:30N 36°02' W 122°01'815.4
2017-Apr-25 19:00N 35°55' W 121°57'714.7
2017-Apr-25 18:31N 35°48' W 121°53'714.2
2017-Apr-25 18:00N 35°42' W 121°48'714.4
2017-Apr-25 17:30N 35°36' W 121°43'815.0
2017-Apr-25 17:00N 35°30' W 121°37'714.5
2017-Apr-25 16:30N 35°25' W 121°32'714.4
2017-Apr-25 16:00N 35°19' W 121°27'714.1
2017-Apr-25 15:30N 35°13' W 121°22'714.1
2017-Apr-25 15:00N 35°07' W 121°18'1414.2
2017-Apr-25 14:00N 34°54' W 121°10'714.1
2017-Apr-25 13:30N 34°48' W 121°06'713.9
2017-Apr-25 13:00N 34°42' W 121°02'713.8
2017-Apr-25 12:30N 34°36' W 120°58'713.9
2017-Apr-25 12:00N 34°30' W 120°54'713.5
2017-Apr-25 11:30N 34°25' W 120°48'714.9
2017-Apr-25 11:00N 34°23' W 120°39'815.1
2017-Apr-25 10:30N 34°21' W 120°30'815.4
2017-Apr-25 09:59N 34°19' W 120°21'715.5
2017-Apr-25 09:30N 34°17' W 120°12'815.5
2017-Apr-25 09:00N 34°15' W 120°03'815.3
2017-Apr-25 08:29N 34°13' W 119°54'815.2
2017-Apr-25 07:59N 34°11' W 119°45'715.1
2017-Apr-25 07:30N 34°09' W 119°37'815.0
2017-Apr-25 07:00N 34°07' W 119°28'814.8
2017-Apr-25 06:30N 34°05' W 119°19'714.5
2017-Apr-25 05:59N 34°02' W 119°11'814.6
2017-Apr-25 05:27N 33°58' W 119°03'512.0
2017-Apr-25 05:00N 33°56' W 118°57'611.2
2017-Apr-25 04:30N 33°53' W 118°51'611.2
2017-Apr-25 04:00N 33°50' W 118°45'611.1
2017-Apr-25 03:30N 33°47' W 118°39'611.4
2017-Apr-25 03:00N 33°45' W 118°34'611.5
2017-Apr-25 02:30N 33°42' W 118°28'611.2
2017-Apr-25 02:00N 33°39' W 118°22'510.7
2017-Apr-25 01:30N 33°38' W 118°15'5 9.5
2017-Apr-25 01:00N 33°42' W 118°11'3 6.7
2017-Apr-25 00:30N 33°45' W 118°13'1 0.2
2017-Apr-24 18:43N 33°46' W 118°13'0 0.0
2017-Apr-24 18:25N 33°46' W 118°13'0 0.0
2017-Apr-24 17:43N 33°46' W 118°13'0 0.0
2017-Apr-24 17:19N 33°46' W 118°13'0 0.0
2017-Apr-24 16:43N 33°46' W 118°13'0 0.0
2017-Apr-24 15:37N 33°46' W 118°13'0 0.0
2017-Apr-24 15:25N 33°46' W 118°13'0 0.0
2017-Apr-24 14:31N 33°46' W 118°13'0 0.0
2017-Apr-24 14:25N 33°46' W 118°13'0 0.0
2017-Apr-24 13:25N 33°46' W 118°13'0 0.0
2017-Apr-24 12:40N 33°46' W 118°13'0 1.2
2017-Apr-24 12:28N 33°46' W 118°13'3 4.2
2017-Apr-24 11:48N 33°44' W 118°12'410.0
2017-Apr-24 11:26N 33°40' W 118°11'2 5.1
2017-Apr-24 11:00N 33°38' W 118°12'3 6.1
2017-Apr-24 10:30N 33°36' W 118°15'4 7.8
2017-Apr-24 10:01N 33°36' W 118°19'4 7.6
2017-Apr-24 09:30N 33°36' W 118°24'5 9.2
2017-Apr-24 09:00N 33°37' W 118°29'5 9.1
2017-Apr-24 08:30N 33°37' W 118°35'4 7.6
2017-Apr-24 08:01N 33°37' W 118°39'3 6.8
2017-Apr-24 07:30N 33°37' W 118°43'4 8.8
2017-Apr-24 07:00N 33°37' W 118°49'4 9.2
2017-Apr-24 06:31N 33°37' W 118°54'5 9.1
2017-Apr-24 06:00N 33°37' W 118°60'5 9.3
2017-Apr-24 05:30N 33°37' W 119°05'510.2
2017-Apr-24 05:00N 33°37' W 119°12'511.0
2017-Apr-24 04:30N 33°37' W 119°18'5 9.9
2017-Apr-24 04:00N 33°37' W 119°24'5 9.4
2017-Apr-24 03:28N 33°36' W 119°30'510.1
2017-Apr-24 03:00N 33°36' W 119°36'5 9.8
2017-Apr-24 02:30N 33°36' W 119°42'5 9.5
2017-Apr-24 02:00N 33°36' W 119°47'5 9.7
2017-Apr-24 01:29N 33°37' W 119°53'4 8.5
2017-Apr-24 01:00N 33°36' W 119°58'4 8.2
2017-Apr-24 00:30N 33°36' W 120°03'510.2
2017-Apr-24 00:00N 33°36' W 120°09'6 9.2
2017-Apr-23 23:22N 33°36' W 120°16'3 9.5
2017-Apr-23 23:00N 33°36' W 120°20'5 9.7
2017-Apr-23 22:30N 33°36' W 120°26'5 9.4
2017-Apr-23 22:00N 33°36' W 120°32'5 9.5
2017-Apr-23 21:30N 33°36' W 120°37'5 9.4
2017-Apr-23 21:00N 33°36' W 120°43'5 9.3
2017-Apr-23 20:30N 33°36' W 120°49'5 9.3
2017-Apr-23 20:00N 33°36' W 120°54'5 9.8
2017-Apr-23 19:27N 33°36' W 121°01'512.5
2017-Apr-23 19:01N 33°36' W 121°07'1115.4
2017-Apr-23 18:18N 33°36' W 121°21'415.6
2017-Apr-23 18:00N 33°36' W 121°26'816.1
2017-Apr-23 17:30N 33°36' W 121°36'815.9
2017-Apr-23 17:01N 33°37' W 121°45'816.0
2017-Apr-23 16:30N 33°37' W 121°55'815.7
2017-Apr-23 16:00N 33°36' W 122°04'1115.4
2017-Apr-23 15:19N 33°38' W 122°17'  
Track history (hours):
 
Tides and Currents Weather Stations Pressure Air Temp Water Temp Dewpoint Dewpoint Depression Visibility Wind Speed Wind Dir Waves Ship Positions

Continental Highway

Last reported at 2017-May-02 21:00 UTC. Time now 2017-May-27 21:05 UTC.
Position N 54°24' W 165°12'.
Warning: this ship's position is 25 days out of date.

Length 199.9 m; beam 32.2 m.

Type: Cargo ship. MMSI: 351223000.

Wind from 340 at 30 knots

Barometer 1002.4 mb
Air temperature 6.0 ° C
Visibility: greater than 5.4 NM
Water temperature 3.5 ° C

Date/timePositionNaut miles runAvg speedWind from/ knotsBaromVisibWave heightAir tempDewpointWater temp
2017-May-02 21:00N 54°24' W 165°12'   340 / 301002.4 5.4 6.0 3.5
2017-Apr-27 23:27N 37°34' W 127°22'716.4
2017-Apr-27 23:00N 37°34' W 127°13'2116.1
2017-Apr-27 21:43N 37°34' W 126°47'816.0
2017-Apr-27 21:15N 37°34' W 126°37'4016.0
2017-Apr-27 18:44N 37°34' W 125°46'616.3
2017-Apr-27 18:23N 37°34' W 125°39'2916.0
2017-Apr-27 16:35N 37°34' W 125°03'116.0
2017-Apr-27 16:30N 37°34' W 125°02'1415.8
2017-Apr-27 15:37N 37°34' W 124°44'1615.4
2017-Apr-27 14:33N 37°34' W 124°23'2615.1
2017-Apr-27 12:50N 37°34' W 123°50'1014.8
2017-Apr-27 12:07N 37°34' W 123°37'214.7
2017-Apr-27 12:00N 37°34' W 123°35'814.5
2017-Apr-27 11:28N 37°34' W 123°25'714.8
2017-Apr-27 11:00N 37°34' W 123°16'714.8
2017-Apr-27 10:30N 37°34' W 123°07'815.4
2017-Apr-27 10:00N 37°37' W 122°58'815.6
2017-Apr-27 09:29N 37°42' W 122°50'611.5
2017-Apr-27 09:00N 37°45' W 122°44'4 7.6
2017-Apr-27 08:30N 37°46' W 122°39'612.6
2017-Apr-27 08:00N 37°48' W 122°32'713.1
2017-Apr-27 07:30N 37°51' W 122°25'714.3
2017-Apr-27 07:00N 37°58' W 122°26'612.4
2017-Apr-27 06:30N 38°03' W 122°21'612.8
2017-Apr-27 06:00N 38°04' W 122°12'4 7.1
2017-Apr-27 05:30N 38°02' W 122°08'0 0.2
2017-Apr-27 04:43N 38°02' W 122°08'0 0.0
2017-Apr-27 04:13N 38°02' W 122°08'0 0.0
2017-Apr-27 03:55N 38°02' W 122°08'0 0.0
2017-Apr-27 03:19N 38°02' W 122°08'0 0.0
2017-Apr-27 01:49N 38°02' W 122°08'0 0.0
2017-Apr-27 01:19N 38°02' W 122°08'0 0.0
2017-Apr-27 00:13N 38°02' W 122°08'0 0.0
2017-Apr-26 23:43N 38°02' W 122°08'0 0.0
2017-Apr-26 22:19N 38°02' W 122°08'0 0.0
2017-Apr-26 20:31N 38°02' W 122°08'0 0.0
2017-Apr-26 20:25N 38°02' W 122°08'0 0.0
2017-Apr-26 19:55N 38°02' W 122°08'0 0.0
2017-Apr-26 18:49N 38°02' W 122°08'0 0.0
2017-Apr-26 17:19N 38°02' W 122°08'0 0.0
2017-Apr-26 16:55N 38°02' W 122°08'0 0.0
2017-Apr-26 16:13N 38°02' W 122°08'0 0.0
2017-Apr-26 11:37N 38°02' W 122°08'0 0.0
2017-Apr-26 06:33N 38°02' W 122°08'0 1.5
2017-Apr-26 06:27N 38°02' W 122°08'3 5.8
2017-Apr-26 05:59N 38°03' W 122°11'715.1
2017-Apr-26 05:30N 38°03' W 122°20'815.7
2017-Apr-26 05:00N 37°57' W 122°27'713.8
2017-Apr-26 04:30N 37°50' W 122°24'3 6.4
2017-Apr-26 04:00N 37°49' W 122°28'714.4
2017-Apr-26 03:31N 37°46' W 122°36'4 8.1
2017-Apr-26 03:00N 37°43' W 122°40'611.0
2017-Apr-26 02:30N 37°38' W 122°39'5 9.8
2017-Apr-26 02:00N 37°33' W 122°40'815.5
2017-Apr-26 01:30N 37°25' W 122°40'815.3
2017-Apr-26 00:59N 37°17' W 122°40'714.9
2017-Apr-26 00:30N 37°10' W 122°37'815.0
2017-Apr-26 00:00N 37°03' W 122°35'1214.8
2017-Apr-25 23:13N 36°52' W 122°31'315.0
2017-Apr-25 23:00N 36°48' W 122°30'815.1
2017-Apr-25 22:30N 36°41' W 122°28'715.0
2017-Apr-25 22:00N 36°35' W 122°23'815.2
2017-Apr-25 21:30N 36°28' W 122°19'714.8
2017-Apr-25 21:00N 36°21' W 122°15'714.8
2017-Apr-25 20:30N 36°15' W 122°10'714.9
2017-Apr-25 20:00N 36°08' W 122°06'815.0
2017-Apr-25 19:30N 36°02' W 122°01'815.4
2017-Apr-25 19:00N 35°55' W 121°57'714.7
2017-Apr-25 18:31N 35°48' W 121°53'714.2
2017-Apr-25 18:00N 35°42' W 121°48'714.4
2017-Apr-25 17:30N 35°36' W 121°43'815.0
2017-Apr-25 17:00N 35°30' W 121°37'714.5
2017-Apr-25 16:30N 35°25' W 121°32'714.4
2017-Apr-25 16:00N 35°19' W 121°27'714.1
2017-Apr-25 15:30N 35°13' W 121°22'714.1
2017-Apr-25 15:00N 35°07' W 121°18'1414.2
2017-Apr-25 14:00N 34°54' W 121°10'714.1
2017-Apr-25 13:30N 34°48' W 121°06'713.9
2017-Apr-25 13:00N 34°42' W 121°02'713.8
2017-Apr-25 12:30N 34°36' W 120°58'713.9
2017-Apr-25 12:00N 34°30' W 120°54'713.5
2017-Apr-25 11:30N 34°25' W 120°48'714.9
2017-Apr-25 11:00N 34°23' W 120°39'815.1
2017-Apr-25 10:30N 34°21' W 120°30'815.4
2017-Apr-25 09:59N 34°19' W 120°21'715.5
2017-Apr-25 09:30N 34°17' W 120°12'815.5
2017-Apr-25 09:00N 34°15' W 120°03'815.3
2017-Apr-25 08:29N 34°13' W 119°54'815.2
2017-Apr-25 07:59N 34°11' W 119°45'715.1
2017-Apr-25 07:30N 34°09' W 119°37'815.0
2017-Apr-25 07:00N 34°07' W 119°28'814.8
2017-Apr-25 06:30N 34°05' W 119°19'714.5
2017-Apr-25 05:59N 34°02' W 119°11'814.6
2017-Apr-25 05:27N 33°58' W 119°03'512.0
2017-Apr-25 05:00N 33°56' W 118°57'611.2
2017-Apr-25 04:30N 33°53' W 118°51'611.2
2017-Apr-25 04:00N 33°50' W 118°45'611.1
2017-Apr-25 03:30N 33°47' W 118°39'611.4
2017-Apr-25 03:00N 33°45' W 118°34'611.5
2017-Apr-25 02:30N 33°42' W 118°28'611.2
2017-Apr-25 02:00N 33°39' W 118°22'510.7
2017-Apr-25 01:30N 33°38' W 118°15'5 9.5
2017-Apr-25 01:00N 33°42' W 118°11'3 6.7
2017-Apr-25 00:30N 33°45' W 118°13'1 0.2
2017-Apr-24 18:43N 33°46' W 118°13'0 0.0
2017-Apr-24 18:25N 33°46' W 118°13'0 0.0
2017-Apr-24 17:43N 33°46' W 118°13'0 0.0
2017-Apr-24 17:19N 33°46' W 118°13'0 0.0
2017-Apr-24 16:43N 33°46' W 118°13'0 0.0
2017-Apr-24 15:37N 33°46' W 118°13'0 0.0
2017-Apr-24 15:25N 33°46' W 118°13'0 0.0
2017-Apr-24 14:31N 33°46' W 118°13'0 0.0
2017-Apr-24 14:25N 33°46' W 118°13'0 0.0
2017-Apr-24 13:25N 33°46' W 118°13'0 0.0
2017-Apr-24 12:40N 33°46' W 118°13'0 1.2
2017-Apr-24 12:28N 33°46' W 118°13'3 4.2
2017-Apr-24 11:48N 33°44' W 118°12'410.0
2017-Apr-24 11:26N 33°40' W 118°11'2 5.1
2017-Apr-24 11:00N 33°38' W 118°12'3 6.1
2017-Apr-24 10:30N 33°36' W 118°15'4 7.8
2017-Apr-24 10:01N 33°36' W 118°19'4 7.6
2017-Apr-24 09:30N 33°36' W 118°24'5 9.2
2017-Apr-24 09:00N 33°37' W 118°29'5 9.1
2017-Apr-24 08:30N 33°37' W 118°35'4 7.6
2017-Apr-24 08:01N 33°37' W 118°39'3 6.8
2017-Apr-24 07:30N 33°37' W 118°43'4 8.8
2017-Apr-24 07:00N 33°37' W 118°49'4 9.2
2017-Apr-24 06:31N 33°37' W 118°54'5 9.1
2017-Apr-24 06:00N 33°37' W 118°60'5 9.3
2017-Apr-24 05:30N 33°37' W 119°05'510.2
2017-Apr-24 05:00N 33°37' W 119°12'511.0
2017-Apr-24 04:30N 33°37' W 119°18'5 9.9
2017-Apr-24 04:00N 33°37' W 119°24'5 9.4
2017-Apr-24 03:28N 33°36' W 119°30'510.1
2017-Apr-24 03:00N 33°36' W 119°36'5 9.8
2017-Apr-24 02:30N 33°36' W 119°42'5 9.5
2017-Apr-24 02:00N 33°36' W 119°47'5 9.7
2017-Apr-24 01:29N 33°37' W 119°53'4 8.5
2017-Apr-24 01:00N 33°36' W 119°58'4 8.2
2017-Apr-24 00:30N 33°36' W 120°03'510.2
2017-Apr-24 00:00N 33°36' W 120°09'6 9.2
2017-Apr-23 23:22N 33°36' W 120°16'3 9.5
2017-Apr-23 23:00N 33°36' W 120°20'5 9.7
2017-Apr-23 22:30N 33°36' W 120°26'5 9.4
2017-Apr-23 22:00N 33°36' W 120°32'5 9.5
2017-Apr-23 21:30N 33°36' W 120°37'5 9.4
2017-Apr-23 21:00N 33°36' W 120°43'5 9.3
2017-Apr-23 20:30N 33°36' W 120°49'5 9.3
2017-Apr-23 20:00N 33°36' W 120°54'5 9.8
2017-Apr-23 19:27N 33°36' W 121°01'512.5
2017-Apr-23 19:01N 33°36' W 121°07'1115.4
2017-Apr-23 18:18N 33°36' W 121°21'415.6
2017-Apr-23 18:00N 33°36' W 121°26'816.1
2017-Apr-23 17:30N 33°36' W 121°36'815.9
2017-Apr-23 17:01N 33°37' W 121°45'816.0
2017-Apr-23 16:30N 33°37' W 121°55'815.7
2017-Apr-23 16:00N 33°36' W 122°04'1115.4
2017-Apr-23 15:19N 33°38' W 122°17'  

Dump ship's entire track history